Ethridge, Montana
Current Conditions -  °F | °C
As of 3:56 AM on Saturday 25 Oct 2014 (Local Time) from KCTB Reporting Station
Overcast Overcast  
Wind Chill: 38°   Ceiling: 5500
Heat Index: 42°   Visibility: 10mi
Dew Point: 32°   Wind: 6mph
Humidity: 67%   Direction: 50°NE
Pressure: 30.02"   Gusts: NA
Location:  48.56°N, 112.12°W
Report Text: KCTB 250956Z AUTO 05005KT 10SM BKN055 OVC070 06/00 A3002 RMK AO2 SLP167 T00560000
Loading
Personal Weather Stations






























Interactive Weather Map
Tropical Storm Tracking
New forecast layout! Learn more

10-Day Weather Forecast

Advertisements
Track Severe Weather on mobile